sensor_id;sensor_type;location;lat;lon;timestamp;temperature;humidity
22714;DHT22;11524;50.846;4.326;2023-04-25T00:01:47;20.40;55.60
22714;DHT22;11524;50.846;4.326;2023-04-25T00:04:12;20.40;54.80
22714;DHT22;11524;50.846;4.326;2023-04-25T00:06:38;20.40;54.90
22714;DHT22;11524;50.846;4.326;2023-04-25T00:09:05;20.40;54.90
22714;DHT22;11524;50.846;4.326;2023-04-25T00:11:35;20.40;54.80
22714;DHT22;11524;50.846;4.326;2023-04-25T00:14:02;20.40;54.90
22714;DHT22;11524;50.846;4.326;2023-04-25T00:16:28;20.40;55.10
22714;DHT22;11524;50.846;4.326;2023-04-25T00:18:55;20.30;55.10
22714;DHT22;11524;50.846;4.326;2023-04-25T00:21:22;20.40;55.30
22714;DHT22;11524;50.846;4.326;2023-04-25T00:23:49;20.30;55.00
22714;DHT22;11524;50.846;4.326;2023-04-25T00:26:15;20.40;55.30
22714;DHT22;11524;50.846;4.326;2023-04-25T00:28:41;20.30;55.00
22714;DHT22;11524;50.846;4.326;2023-04-25T00:31:06;20.30;55.10
22714;DHT22;11524;50.846;4.326;2023-04-25T00:33:32;20.30;55.60
22714;DHT22;11524;50.846;4.326;2023-04-25T00:35:58;20.30;55.20
22714;DHT22;11524;50.846;4.326;2023-04-25T00:38:23;20.30;55.30
22714;DHT22;11524;50.846;4.326;2023-04-25T00:40:49;20.30;55.40
22714;DHT22;11524;50.846;4.326;2023-04-25T00:43:15;20.30;55.30
22714;DHT22;11524;50.846;4.326;2023-04-25T00:45:43;20.30;55.40
22714;DHT22;11524;50.846;4.326;2023-04-25T00:48:08;20.30;55.60
22714;DHT22;11524;50.846;4.326;2023-04-25T00:50:35;20.30;55.10
22714;DHT22;11524;50.846;4.326;2023-04-25T00:53:01;20.30;55.60
22714;DHT22;11524;50.846;4.326;2023-04-25T00:55:28;20.30;55.30
22714;DHT22;11524;50.846;4.326;2023-04-25T00:57:54;20.30;55.30
22714;DHT22;11524;50.846;4.326;2023-04-25T01:00:20;20.30;55.60
22714;DHT22;11524;50.846;4.326;2023-04-25T01:02:46;20.20;51.00
22714;DHT22;11524;50.846;4.326;2023-04-25T01:05:12;20.20;50.50
22714;DHT22;11524;50.846;4.326;2023-04-25T01:07:39;20.20;50.90
22714;DHT22;11524;50.846;4.326;2023-04-25T01:10:05;20.20;50.90
22714;DHT22;11524;50.846;4.326;2023-04-25T01:12:31;20.20;50.50
22714;DHT22;11524;50.846;4.326;2023-04-25T01:14:57;20.10;51.10
22714;DHT22;11524;50.846;4.326;2023-04-25T01:17:23;20.10;50.80
22714;DHT22;11524;50.846;4.326;2023-04-25T01:19:49;20.10;50.90
22714;DHT22;11524;50.846;4.326;2023-04-25T01:22:16;20.10;50.80
22714;DHT22;11524;50.846;4.326;2023-04-25T01:24:42;20.10;50.70
22714;DHT22;11524;50.846;4.326;2023-04-25T01:27:08;20.10;50.50
22714;DHT22;11524;50.846;4.326;2023-04-25T01:29:35;20.10;50.60
22714;DHT22;11524;50.846;4.326;2023-04-25T01:32:01;20.10;50.70
22714;DHT22;11524;50.846;4.326;2023-04-25T01:34:27;20.10;50.50
22714;DHT22;11524;50.846;4.326;2023-04-25T01:36:53;20.10;50.30
22714;DHT22;11524;50.846;4.326;2023-04-25T01:39:19;20.10;50.60
22714;DHT22;11524;50.846;4.326;2023-04-25T01:41:48;20.10;50.00
22714;DHT22;11524;50.846;4.326;2023-04-25T01:44:15;20.10;50.40
22714;DHT22;11524;50.846;4.326;2023-04-25T01:46:41;20.00;50.40
22714;DHT22;11524;50.846;4.326;2023-04-25T01:49:07;20.10;50.10
22714;DHT22;11524;50.846;4.326;2023-04-25T01:51:33;20.00;50.50
22714;DHT22;11524;50.846;4.326;2023-04-25T01:53:59;20.00;50.90
22714;DHT22;11524;50.846;4.326;2023-04-25T01:56:30;20.00;50.40
22714;DHT22;11524;50.846;4.326;2023-04-25T01:58:56;19.90;50.20
22714;DHT22;11524;50.846;4.326;2023-04-25T02:01:21;19.90;50.60
22714;DHT22;11524;50.846;4.326;2023-04-25T02:03:47;20.00;50.60
22714;DHT22;11524;50.846;4.326;2023-04-25T02:06:13;19.90;50.50
22714;DHT22;11524;50.846;4.326;2023-04-25T02:08:38;19.90;50.70
22714;DHT22;11524;50.846;4.326;2023-04-25T02:11:04;19.90;50.70
22714;DHT22;11524;50.846;4.326;2023-04-25T02:13:29;19.90;50.70
22714;DHT22;11524;50.846;4.326;2023-04-25T02:15:55;19.90;50.70
22714;DHT22;11524;50.846;4.326;2023-04-25T02:18:21;19.90;50.90
22714;DHT22;11524;50.846;4.326;2023-04-25T02:20:46;19.80;50.80
22714;DHT22;11524;50.846;4.326;2023-04-25T02:23:12;19.90;51.00
22714;DHT22;11524;50.846;4.326;2023-04-25T02:25:38;19.80;50.60
22714;DHT22;11524;50.846;4.326;2023-04-25T02:28:04;19.80;50.90
22714;DHT22;11524;50.846;4.326;2023-04-25T02:30:29;19.80;50.80
22714;DHT22;11524;50.846;4.326;2023-04-25T02:32:55;19.80;50.50
22714;DHT22;11524;50.846;4.326;2023-04-25T02:35:21;19.80;51.10
22714;DHT22;11524;50.846;4.326;2023-04-25T02:37:47;19.80;50.80
22714;DHT22;11524;50.846;4.326;2023-04-25T02:40:13;19.80;51.10
22714;DHT22;11524;50.846;4.326;2023-04-25T02:42:38;19.70;50.90
22714;DHT22;11524;50.846;4.326;2023-04-25T02:45:04;19.70;51.10
22714;DHT22;11524;50.846;4.326;2023-04-25T02:47:30;19.70;51.20
22714;DHT22;11524;50.846;4.326;2023-04-25T02:49:56;19.70;51.00
22714;DHT22;11524;50.846;4.326;2023-04-25T02:52:22;19.80;51.20
22714;DHT22;11524;50.846;4.326;2023-04-25T02:54:47;19.80;51.10
22714;DHT22;11524;50.846;4.326;2023-04-25T02:57:13;19.70;51.10
22714;DHT22;11524;50.846;4.326;2023-04-25T02:59:39;19.80;51.10
22714;DHT22;11524;50.846;4.326;2023-04-25T03:02:04;19.80;51.00
22714;DHT22;11524;50.846;4.326;2023-04-25T03:04:30;19.70;50.80
22714;DHT22;11524;50.846;4.326;2023-04-25T03:06:56;19.80;50.70
22714;DHT22;11524;50.846;4.326;2023-04-25T03:09:22;19.80;51.10
22714;DHT22;11524;50.846;4.326;2023-04-25T03:11:47;19.80;50.80
22714;DHT22;11524;50.846;4.326;2023-04-25T03:14:13;19.80;50.60
22714;DHT22;11524;50.846;4.326;2023-04-25T03:16:39;19.80;50.60
22714;DHT22;11524;50.846;4.326;2023-04-25T03:19:05;19.80;50.60
22714;DHT22;11524;50.846;4.326;2023-04-25T03:21:35;19.80;50.80
22714;DHT22;11524;50.846;4.326;2023-04-25T03:24:02;19.80;50.70
22714;DHT22;11524;50.846;4.326;2023-04-25T03:26:28;19.70;51.00
22714;DHT22;11524;50.846;4.326;2023-04-25T03:28:54;19.70;51.10
22714;DHT22;11524;50.846;4.326;2023-04-25T03:31:20;19.70;51.20
22714;DHT22;11524;50.846;4.326;2023-04-25T03:33:46;19.70;51.30
22714;DHT22;11524;50.846;4.326;2023-04-25T03:36:11;19.70;51.30
22714;DHT22;11524;50.846;4.326;2023-04-25T03:38:37;19.60;51.30
22714;DHT22;11524;50.846;4.326;2023-04-25T03:41:02;19.60;50.80
22714;DHT22;11524;50.846;4.326;2023-04-25T03:43:28;19.60;50.90
22714;DHT22;11524;50.846;4.326;2023-04-25T03:45:54;19.60;50.80
22714;DHT22;11524;50.846;4.326;2023-04-25T03:48:20;19.60;50.60
22714;DHT22;11524;50.846;4.326;2023-04-25T03:50:50;19.60;50.60
22714;DHT22;11524;50.846;4.326;2023-04-25T03:53:15;19.60;50.60
22714;DHT22;11524;50.846;4.326;2023-04-25T03:55:41;19.60;50.60
22714;DHT22;11524;50.846;4.326;2023-04-25T03:58:07;19.60;50.80
22714;DHT22;11524;50.846;4.326;2023-04-25T04:00:34;19.60;50.60
22714;DHT22;11524;50.846;4.326;2023-04-25T04:03:00;19.60;50.80
22714;DHT22;11524;50.846;4.326;2023-04-25T04:05:26;19.60;50.30
22714;DHT22;11524;50.846;4.326;2023-04-25T04:07:53;19.60;50.60
22714;DHT22;11524;50.846;4.326;2023-04-25T04:10:18;19.60;50.70
22714;DHT22;11524;50.846;4.326;2023-04-25T04:12:44;19.60;50.30
22714;DHT22;11524;50.846;4.326;2023-04-25T04:15:10;19.60;50.20
22714;DHT22;11524;50.846;4.326;2023-04-25T04:17:36;19.60;50.40
22714;DHT22;11524;50.846;4.326;2023-04-25T04:20:02;19.60;50.30
22714;DHT22;11524;50.846;4.326;2023-04-25T04:22:29;19.50;50.20
22714;DHT22;11524;50.846;4.326;2023-04-25T04:24:54;19.50;50.20
22714;DHT22;11524;50.846;4.326;2023-04-25T04:27:22;19.50;50.20
22714;DHT22;11524;50.846;4.326;2023-04-25T04:29:48;19.50;50.20
22714;DHT22;11524;50.846;4.326;2023-04-25T04:32:15;19.60;49.90
22714;DHT22;11524;50.846;4.326;2023-04-25T04:34:40;19.60;50.00
22714;DHT22;11524;50.846;4.326;2023-04-25T04:37:06;19.50;49.70
22714;DHT22;11524;50.846;4.326;2023-04-25T04:39:33;19.50;50.60
22714;DHT22;11524;50.846;4.326;2023-04-25T04:41:59;19.50;50.00
22714;DHT22;11524;50.846;4.326;2023-04-25T04:44:26;19.50;50.20
22714;DHT22;11524;50.846;4.326;2023-04-25T04:46:52;19.50;50.10
22714;DHT22;11524;50.846;4.326;2023-04-25T04:49:18;19.50;50.20
22714;DHT22;11524;50.846;4.326;2023-04-25T04:51:43;19.50;50.00
22714;DHT22;11524;50.846;4.326;2023-04-25T04:54:12;19.50;50.00
22714;DHT22;11524;50.846;4.326;2023-04-25T04:56:38;19.50;50.40
22714;DHT22;11524;50.846;4.326;2023-04-25T04:59:04;19.50;50.40
22714;DHT22;11524;50.846;4.326;2023-04-25T05:01:30;19.40;50.40
22714;DHT22;11524;50.846;4.326;2023-04-25T05:03:56;19.50;50.50
22714;DHT22;11524;50.846;4.326;2023-04-25T05:06:29;19.40;50.70
22714;DHT22;11524;50.846;4.326;2023-04-25T05:08:55;19.50;50.50
22714;DHT22;11524;50.846;4.326;2023-04-25T05:11:22;19.40;50.60
22714;DHT22;11524;50.846;4.326;2023-04-25T05:13:49;19.40;50.40
22714;DHT22;11524;50.846;4.326;2023-04-25T05:16:14;19.40;50.20
22714;DHT22;11524;50.846;4.326;2023-04-25T05:18:40;19.40;50.50
22714;DHT22;11524;50.846;4.326;2023-04-25T05:21:06;19.40;50.30
22714;DHT22;11524;50.846;4.326;2023-04-25T05:23:32;19.40;50.00
22714;DHT22;11524;50.846;4.326;2023-04-25T05:25:59;19.40;57.60
22714;DHT22;11524;50.846;4.326;2023-04-25T05:28:24;19.50;53.70
22714;DHT22;11524;50.846;4.326;2023-04-25T05:30:50;19.50;50.50
22714;DHT22;11524;50.846;4.326;2023-04-25T05:33:16;19.50;50.20
22714;DHT22;11524;50.846;4.326;2023-04-25T05:35:42;19.50;50.30
22714;DHT22;11524;50.846;4.326;2023-04-25T05:38:08;19.40;49.90
22714;DHT22;11524;50.846;4.326;2023-04-25T05:40:33;19.50;50.20
22714;DHT22;11524;50.846;4.326;2023-04-25T05:42:59;19.40;50.00
22714;DHT22;11524;50.846;4.326;2023-04-25T05:45:25;19.40;49.90
22714;DHT22;11524;50.846;4.326;2023-04-25T05:47:50;19.40;50.10
22714;DHT22;11524;50.846;4.326;2023-04-25T05:50:16;19.40;49.60
22714;DHT22;11524;50.846;4.326;2023-04-25T05:52:42;19.40;49.40
22714;DHT22;11524;50.846;4.326;2023-04-25T05:55:08;19.40;49.50
22714;DHT22;11524;50.846;4.326;2023-04-25T05:57:35;19.40;49.20
22714;DHT22;11524;50.846;4.326;2023-04-25T06:00:03;19.40;49.70
22714;DHT22;11524;50.846;4.326;2023-04-25T06:02:29;19.40;49.20
22714;DHT22;11524;50.846;4.326;2023-04-25T06:04:55;19.40;48.90
22714;DHT22;11524;50.846;4.326;2023-04-25T06:07:20;19.40;49.10
22714;DHT22;11524;50.846;4.326;2023-04-25T06:09:46;19.50;49.70
22714;DHT22;11524;50.846;4.326;2023-04-25T06:12:12;19.40;49.10
22714;DHT22;11524;50.846;4.326;2023-04-25T06:14:37;19.40;49.30
22714;DHT22;11524;50.846;4.326;2023-04-25T06:17:03;19.50;48.70
22714;DHT22;11524;50.846;4.326;2023-04-25T06:19:34;19.50;48.90
22714;DHT22;11524;50.846;4.326;2023-04-25T06:21:59;19.50;48.70
22714;DHT22;11524;50.846;4.326;2023-04-25T06:24:25;19.60;49.00
22714;DHT22;11524;50.846;4.326;2023-04-25T06:26:52;19.60;48.50
22714;DHT22;11524;50.846;4.326;2023-04-25T06:29:18;19.60;48.10
22714;DHT22;11524;50.846;4.326;2023-04-25T06:31:44;19.70;47.80
22714;DHT22;11524;50.846;4.326;2023-04-25T06:34:10;19.70;48.30
22714;DHT22;11524;50.846;4.326;2023-04-25T06:36:36;19.70;47.90
22714;DHT22;11524;50.846;4.326;2023-04-25T06:39:02;19.70;48.20
22714;DHT22;11524;50.846;4.326;2023-04-25T06:41:29;19.70;48.20
22714;DHT22;11524;50.846;4.326;2023-04-25T06:43:54;19.80;49.10
22714;DHT22;11524;50.846;4.326;2023-04-25T06:46:20;19.90;48.40
22714;DHT22;11524;50.846;4.326;2023-04-25T06:48:46;20.00;48.00
22714;DHT22;11524;50.846;4.326;2023-04-25T06:51:11;20.00;47.90
22714;DHT22;11524;50.846;4.326;2023-04-25T06:53:38;20.00;47.40
22714;DHT22;11524;50.846;4.326;2023-04-25T06:56:04;20.10;47.50
22714;DHT22;11524;50.846;4.326;2023-04-25T06:58:30;20.10;47.10
22714;DHT22;11524;50.846;4.326;2023-04-25T07:00:55;20.10;47.20
22714;DHT22;11524;50.846;4.326;2023-04-25T07:03:21;20.20;47.10
22714;DHT22;11524;50.846;4.326;2023-04-25T07:05:47;20.10;47.00
22714;DHT22;11524;50.846;4.326;2023-04-25T07:08:12;20.20;47.00
22714;DHT22;11524;50.846;4.326;2023-04-25T07:10:38;20.20;47.30
22714;DHT22;11524;50.846;4.326;2023-04-25T07:13:04;20.20;47.10
22714;DHT22;11524;50.846;4.326;2023-04-25T07:15:31;20.20;46.90
22714;DHT22;11524;50.846;4.326;2023-04-25T07:17:57;20.20;46.90
22714;DHT22;11524;50.846;4.326;2023-04-25T07:20:22;20.20;46.80
22714;DHT22;11524;50.846;4.326;2023-04-25T07:22:48;20.20;46.90
22714;DHT22;11524;50.846;4.326;2023-04-25T07:25:15;20.20;46.90
22714;DHT22;11524;50.846;4.326;2023-04-25T07:27:41;20.20;46.90
22714;DHT22;11524;50.846;4.326;2023-04-25T07:30:07;20.20;46.70
22714;DHT22;11524;50.846;4.326;2023-04-25T07:32:33;20.20;46.50
22714;DHT22;11524;50.846;4.326;2023-04-25T07:34:58;20.20;46.50
22714;DHT22;11524;50.846;4.326;2023-04-25T07:37:29;20.30;46.30
22714;DHT22;11524;50.846;4.326;2023-04-25T07:39:56;20.20;46.50
22714;DHT22;11524;50.846;4.326;2023-04-25T07:42:22;20.30;46.90
22714;DHT22;11524;50.846;4.326;2023-04-25T07:44:47;20.30;46.20
22714;DHT22;11524;50.846;4.326;2023-04-25T07:47:13;20.30;46.20
22714;DHT22;11524;50.846;4.326;2023-04-25T07:49:39;20.30;46.00
22714;DHT22;11524;50.846;4.326;2023-04-25T07:52:05;20.30;45.80
22714;DHT22;11524;50.846;4.326;2023-04-25T07:54:31;20.30;45.90
22714;DHT22;11524;50.846;4.326;2023-04-25T07:56:58;20.30;46.00
22714;DHT22;11524;50.846;4.326;2023-04-25T07:59:24;20.30;45.80
22714;DHT22;11524;50.846;4.326;2023-04-25T08:01:49;20.40;45.80
22714;DHT22;11524;50.846;4.326;2023-04-25T08:04:16;20.40;45.80
22714;DHT22;11524;50.846;4.326;2023-04-25T08:06:42;20.40;45.90
22714;DHT22;11524;50.846;4.326;2023-04-25T08:09:09;20.40;46.00
22714;DHT22;11524;50.846;4.326;2023-04-25T08:11:36;20.40;45.80
22714;DHT22;11524;50.846;4.326;2023-04-25T08:14:02;20.40;45.90
22714;DHT22;11524;50.846;4.326;2023-04-25T08:16:28;20.40;45.50
22714;DHT22;11524;50.846;4.326;2023-04-25T08:18:54;20.50;45.80
22714;DHT22;11524;50.846;4.326;2023-04-25T08:21:19;20.50;45.60
22714;DHT22;11524;50.846;4.326;2023-04-25T08:23:45;20.50;45.50
22714;DHT22;11524;50.846;4.326;2023-04-25T08:26:11;20.50;45.40
22714;DHT22;11524;50.846;4.326;2023-04-25T08:28:37;20.50;45.60
22714;DHT22;11524;50.846;4.326;2023-04-25T08:31:03;20.60;45.30
22714;DHT22;11524;50.846;4.326;2023-04-25T08:33:28;20.60;45.60
22714;DHT22;11524;50.846;4.326;2023-04-25T08:35:55;20.70;45.70
22714;DHT22;11524;50.846;4.326;2023-04-25T08:38:21;20.70;45.30
22714;DHT22;11524;50.846;4.326;2023-04-25T08:40:49;20.90;45.30
22714;DHT22;11524;50.846;4.326;2023-04-25T08:43:18;20.90;45.10
22714;DHT22;11524;50.846;4.326;2023-04-25T08:45:44;20.90;45.00
22714;DHT22;11524;50.846;4.326;2023-04-25T08:48:12;21.00;45.10
22714;DHT22;11524;50.846;4.326;2023-04-25T08:50:55;21.30;44.90
22714;DHT22;11524;50.846;4.326;2023-04-25T08:53:29;21.60;44.50
22714;DHT22;11524;50.846;4.326;2023-04-25T08:55:55;22.00;43.70
22714;DHT22;11524;50.846;4.326;2023-04-25T08:58:21;22.20;42.10
22714;DHT22;11524;50.846;4.326;2023-04-25T09:00:48;22.10;42.70
22714;DHT22;11524;50.846;4.326;2023-04-25T09:03:14;22.00;42.90
22714;DHT22;11524;50.846;4.326;2023-04-25T09:05:41;21.80;43.20
22714;DHT22;11524;50.846;4.326;2023-04-25T09:08:07;21.70;43.30
22714;DHT22;11524;50.846;4.326;2023-04-25T09:10:33;21.60;43.60
22714;DHT22;11524;50.846;4.326;2023-04-25T09:13:09;21.50;43.40
22714;DHT22;11524;50.846;4.326;2023-04-25T09:15:56;21.50;43.40
22714;DHT22;11524;50.846;4.326;2023-04-25T09:18:29;21.40;43.20
22714;DHT22;11524;50.846;4.326;2023-04-25T09:20:58;21.30;43.20
22714;DHT22;11524;50.846;4.326;2023-04-25T09:23:29;21.30;42.80
22714;DHT22;11524;50.846;4.326;2023-04-25T09:25:55;21.20;42.80
22714;DHT22;11524;50.846;4.326;2023-04-25T09:28:25;21.20;43.10
22714;DHT22;11524;50.846;4.326;2023-04-25T09:30:55;21.20;43.30
22714;DHT22;11524;50.846;4.326;2023-04-25T09:33:31;21.20;43.10
22714;DHT22;11524;50.846;4.326;2023-04-25T09:36:08;21.20;43.30
22714;DHT22;11524;50.846;4.326;2023-04-25T09:38:43;21.20;43.40
22714;DHT22;11524;50.846;4.326;2023-04-25T09:41:10;21.20;43.30
22714;DHT22;11524;50.846;4.326;2023-04-25T09:43:36;21.20;43.30
22714;DHT22;11524;50.846;4.326;2023-04-25T09:46:04;21.20;43.20
22714;DHT22;11524;50.846;4.326;2023-04-25T09:48:33;21.20;43.50
22714;DHT22;11524;50.846;4.326;2023-04-25T09:53:36;21.20;43.50
22714;DHT22;11524;50.846;4.326;2023-04-25T09:56:04;21.20;43.00
22714;DHT22;11524;50.846;4.326;2023-04-25T09:58:31;21.20;42.70
22714;DHT22;11524;50.846;4.326;2023-04-25T10:01:04;21.20;42.90
22714;DHT22;11524;50.846;4.326;2023-04-25T10:03:30;21.10;42.90
22714;DHT22;11524;50.846;4.326;2023-04-25T10:05:59;21.20;41.40
22714;DHT22;11524;50.846;4.326;2023-04-25T10:08:32;21.10;43.10
22714;DHT22;11524;50.846;4.326;2023-04-25T10:11:02;21.20;42.80
22714;DHT22;11524;50.846;4.326;2023-04-25T10:13:32;21.20;42.50
22714;DHT22;11524;50.846;4.326;2023-04-25T10:15:59;21.10;43.00
22714;DHT22;11524;50.846;4.326;2023-04-25T10:18:26;21.10;42.70
22714;DHT22;11524;50.846;4.326;2023-04-25T10:20:54;21.10;42.70
22714;DHT22;11524;50.846;4.326;2023-04-25T10:23:20;21.10;42.00
22714;DHT22;11524;50.846;4.326;2023-04-25T10:25:46;21.10;41.80
22714;DHT22;11524;50.846;4.326;2023-04-25T10:28:12;21.10;41.60
22714;DHT22;11524;50.846;4.326;2023-04-25T10:30:57;21.10;41.90
22714;DHT22;11524;50.846;4.326;2023-04-25T10:33:29;21.00;42.40
22714;DHT22;11524;50.846;4.326;2023-04-25T10:35:57;21.10;39.80
22714;DHT22;11524;50.846;4.326;2023-04-25T10:38:23;21.10;41.60
22714;DHT22;11524;50.846;4.326;2023-04-25T10:41:07;21.10;42.20
22714;DHT22;11524;50.846;4.326;2023-04-25T10:43:43;21.10;41.60
22714;DHT22;11524;50.846;4.326;2023-04-25T10:46:16;21.10;41.50
22714;DHT22;11524;50.846;4.326;2023-04-25T10:48:58;21.10;41.70
22714;DHT22;11524;50.846;4.326;2023-04-25T10:51:26;21.10;41.30
22714;DHT22;11524;50.846;4.326;2023-04-25T10:56:22;21.10;41.80
22714;DHT22;11524;50.846;4.326;2023-04-25T10:58:51;21.10;41.50
22714;DHT22;11524;50.846;4.326;2023-04-25T11:01:21;21.10;41.50
22714;DHT22;11524;50.846;4.326;2023-04-25T11:03:47;21.10;41.50
22714;DHT22;11524;50.846;4.326;2023-04-25T11:09:03;21.00;42.00
22714;DHT22;11524;50.846;4.326;2023-04-25T11:11:36;21.00;41.80
22714;DHT22;11524;50.846;4.326;2023-04-25T11:14:02;21.00;42.20
22714;DHT22;11524;50.846;4.326;2023-04-25T11:16:28;21.00;42.30
22714;DHT22;11524;50.846;4.326;2023-04-25T11:18:53;21.00;41.90
22714;DHT22;11524;50.846;4.326;2023-04-25T11:21:22;21.10;41.70
22714;DHT22;11524;50.846;4.326;2023-04-25T11:23:47;21.10;41.70
22714;DHT22;11524;50.846;4.326;2023-04-25T11:26:13;21.10;41.30
22714;DHT22;11524;50.846;4.326;2023-04-25T11:28:40;21.10;41.40
22714;DHT22;11524;50.846;4.326;2023-04-25T11:31:06;21.10;41.50
22714;DHT22;11524;50.846;4.326;2023-04-25T11:33:32;21.20;41.20
22714;DHT22;11524;50.846;4.326;2023-04-25T11:35:58;21.10;41.10
22714;DHT22;11524;50.846;4.326;2023-04-25T11:38:24;21.20;42.20
22714;DHT22;11524;50.846;4.326;2023-04-25T11:40:52;21.20;41.70
22714;DHT22;11524;50.846;4.326;2023-04-25T11:43:20;21.20;41.10
22714;DHT22;11524;50.846;4.326;2023-04-25T11:45:49;21.20;40.70
22714;DHT22;11524;50.846;4.326;2023-04-25T11:48:17;21.20;40.80
22714;DHT22;11524;50.846;4.326;2023-04-25T11:50:43;21.20;40.60
22714;DHT22;11524;50.846;4.326;2023-04-25T11:53:09;21.20;40.90
22714;DHT22;11524;50.846;4.326;2023-04-25T11:55:35;21.20;40.80
22714;DHT22;11524;50.846;4.326;2023-04-25T11:58:03;21.20;40.60
22714;DHT22;11524;50.846;4.326;2023-04-25T12:00:29;21.20;40.50
22714;DHT22;11524;50.846;4.326;2023-04-25T12:02:56;21.20;41.00
22714;DHT22;11524;50.846;4.326;2023-04-25T12:05:32;21.20;40.50
22714;DHT22;11524;50.846;4.326;2023-04-25T12:08:10;21.20;40.50
22714;DHT22;11524;50.846;4.326;2023-04-25T12:10:38;21.20;40.40
22714;DHT22;11524;50.846;4.326;2023-04-25T12:15:43;21.20;40.90
22714;DHT22;11524;50.846;4.326;2023-04-25T12:18:09;21.20;40.40
22714;DHT22;11524;50.846;4.326;2023-04-25T12:20:35;21.20;40.90
22714;DHT22;11524;50.846;4.326;2023-04-25T12:23:05;21.30;40.80
22714;DHT22;11524;50.846;4.326;2023-04-25T12:25:43;21.20;41.10
22714;DHT22;11524;50.846;4.326;2023-04-25T12:28:13;21.20;40.40
22714;DHT22;11524;50.846;4.326;2023-04-25T12:31:12;21.20;40.30
22714;DHT22;11524;50.846;4.326;2023-04-25T12:33:40;21.20;40.00
22714;DHT22;11524;50.846;4.326;2023-04-25T12:36:06;21.20;39.70
22714;DHT22;11524;50.846;4.326;2023-04-25T12:38:39;21.30;39.80
22714;DHT22;11524;50.846;4.326;2023-04-25T12:41:05;21.20;40.00
22714;DHT22;11524;50.846;4.326;2023-04-25T12:43:31;21.20;40.20
22714;DHT22;11524;50.846;4.326;2023-04-25T12:45:57;21.20;40.20
22714;DHT22;11524;50.846;4.326;2023-04-25T12:48:23;21.20;40.00
22714;DHT22;11524;50.846;4.326;2023-04-25T12:50:50;21.20;40.00
22714;DHT22;11524;50.846;4.326;2023-04-25T12:53:17;21.20;40.00
22714;DHT22;11524;50.846;4.326;2023-04-25T12:55:43;21.20;40.10
22714;DHT22;11524;50.846;4.326;2023-04-25T12:58:11;21.20;39.90
22714;DHT22;11524;50.846;4.326;2023-04-25T13:00:37;21.20;39.80
22714;DHT22;11524;50.846;4.326;2023-04-25T13:03:03;21.20;40.10
22714;DHT22;11524;50.846;4.326;2023-04-25T13:05:30;21.30;40.10
22714;DHT22;11524;50.846;4.326;2023-04-25T13:07:56;21.30;39.90
22714;DHT22;11524;50.846;4.326;2023-04-25T13:10:21;21.30;40.30
22714;DHT22;11524;50.846;4.326;2023-04-25T13:12:47;21.30;40.40
22714;DHT22;11524;50.846;4.326;2023-04-25T13:15:13;21.30;40.50
22714;DHT22;11524;50.846;4.326;2023-04-25T13:17:41;21.30;40.20
22714;DHT22;11524;50.846;4.326;2023-04-25T13:20:07;21.30;40.30
22714;DHT22;11524;50.846;4.326;2023-04-25T13:22:37;21.30;40.10
22714;DHT22;11524;50.846;4.326;2023-04-25T13:25:04;21.30;40.10
22714;DHT22;11524;50.846;4.326;2023-04-25T13:27:30;21.30;40.00
22714;DHT22;11524;50.846;4.326;2023-04-25T13:29:58;21.30;39.50
22714;DHT22;11524;50.846;4.326;2023-04-25T13:32:24;21.30;39.70
22714;DHT22;11524;50.846;4.326;2023-04-25T13:34:51;21.30;39.60
22714;DHT22;11524;50.846;4.326;2023-04-25T13:37:17;21.30;39.40
22714;DHT22;11524;50.846;4.326;2023-04-25T13:39:42;21.30;39.00
22714;DHT22;11524;50.846;4.326;2023-04-25T13:42:08;21.30;39.10
22714;DHT22;11524;50.846;4.326;2023-04-25T13:44:34;21.30;38.40
22714;DHT22;11524;50.846;4.326;2023-04-25T13:46:59;21.20;38.60
22714;DHT22;11524;50.846;4.326;2023-04-25T13:49:26;21.30;38.90
22714;DHT22;11524;50.846;4.326;2023-04-25T13:51:52;21.30;38.70
22714;DHT22;11524;50.846;4.326;2023-04-25T13:54:17;21.30;39.10
22714;DHT22;11524;50.846;4.326;2023-04-25T13:56:43;21.30;39.50
22714;DHT22;11524;50.846;4.326;2023-04-25T13:59:09;21.30;39.60
22714;DHT22;11524;50.846;4.326;2023-04-25T14:01:34;21.30;40.20
22714;DHT22;11524;50.846;4.326;2023-04-25T14:04:01;21.30;40.20
22714;DHT22;11524;50.846;4.326;2023-04-25T14:06:29;21.30;40.20
22714;DHT22;11524;50.846;4.326;2023-04-25T14:08:54;21.30;39.80
22714;DHT22;11524;50.846;4.326;2023-04-25T14:11:20;21.30;39.70
22714;DHT22;11524;50.846;4.326;2023-04-25T14:13:46;21.30;39.30
22714;DHT22;11524;50.846;4.326;2023-04-25T14:16:12;21.30;39.60
22714;DHT22;11524;50.846;4.326;2023-04-25T14:18:38;21.30;39.10
22714;DHT22;11524;50.846;4.326;2023-04-25T14:21:04;21.30;38.70
22714;DHT22;11524;50.846;4.326;2023-04-25T14:23:30;21.30;39.10
22714;DHT22;11524;50.846;4.326;2023-04-25T14:25:56;21.30;39.00
22714;DHT22;11524;50.846;4.326;2023-04-25T14:28:21;21.30;38.90
22714;DHT22;11524;50.846;4.326;2023-04-25T14:30:47;21.30;38.80
22714;DHT22;11524;50.846;4.326;2023-04-25T14:33:12;21.30;38.60
22714;DHT22;11524;50.846;4.326;2023-04-25T14:35:39;21.20;38.20
22714;DHT22;11524;50.846;4.326;2023-04-25T14:38:05;21.20;38.50
22714;DHT22;11524;50.846;4.326;2023-04-25T14:40:31;21.20;38.80
22714;DHT22;11524;50.846;4.326;2023-04-25T14:42:56;21.20;38.70
22714;DHT22;11524;50.846;4.326;2023-04-25T14:45:22;21.30;42.10
22714;DHT22;11524;50.846;4.326;2023-04-25T14:47:48;21.30;45.70
22714;DHT22;11524;50.846;4.326;2023-04-25T14:50:14;21.40;45.80
22714;DHT22;11524;50.846;4.326;2023-04-25T14:52:39;21.30;46.30
22714;DHT22;11524;50.846;4.326;2023-04-25T14:55:05;21.40;46.40
22714;DHT22;11524;50.846;4.326;2023-04-25T14:57:32;21.50;46.80
22714;DHT22;11524;50.846;4.326;2023-04-25T14:59:57;21.50;46.50
22714;DHT22;11524;50.846;4.326;2023-04-25T15:02:24;21.60;46.30
22714;DHT22;11524;50.846;4.326;2023-04-25T15:04:52;21.60;45.60
22714;DHT22;11524;50.846;4.326;2023-04-25T15:07:18;21.60;45.80
22714;DHT22;11524;50.846;4.326;2023-04-25T15:09:44;21.60;46.20
22714;DHT22;11524;50.846;4.326;2023-04-25T15:12:10;21.60;45.40
22714;DHT22;11524;50.846;4.326;2023-04-25T15:14:35;21.60;45.50
22714;DHT22;11524;50.846;4.326;2023-04-25T15:17:01;21.60;45.50
22714;DHT22;11524;50.846;4.326;2023-04-25T15:19:27;21.60;43.90
22714;DHT22;11524;50.846;4.326;2023-04-25T15:21:53;21.50;40.00
22714;DHT22;11524;50.846;4.326;2023-04-25T15:24:19;21.50;38.80
22714;DHT22;11524;50.846;4.326;2023-04-25T15:26:45;21.40;38.50
22714;DHT22;11524;50.846;4.326;2023-04-25T15:29:11;21.40;38.50
22714;DHT22;11524;50.846;4.326;2023-04-25T15:31:37;21.40;38.30
22714;DHT22;11524;50.846;4.326;2023-04-25T15:34:03;21.30;38.10
22714;DHT22;11524;50.846;4.326;2023-04-25T15:36:29;21.30;38.00
22714;DHT22;11524;50.846;4.326;2023-04-25T15:38:56;21.30;37.80